Time;durP1;ratioP1;P1;durP2;ratioP2;P2;SDS_P1;SDS_P2;PMS_P1;PMS_P2;Temp;Humidity;BMP_temperature;BMP_pressure;BME280_temperature;BME280_humidity;BME280_pressure;Samples;Min_cycle;Max_cycle;Signal;HPM_P1;HPM_P2
2023/10/29 00:00:43;;;;;;;0.00;0.00;;;;;;;;;;1774520;27;20871;-65
2023/10/29 00:01:34;;;;;;;0.00;0.00;;;;;;;;;;1772603;27;20235;-64
2023/10/29 00:02:25;;;;;;;0.00;0.00;;;;;;;;;;1773913;27;20310;-65
2023/10/29 00:03:17;;;;;;;0.00;0.00;;;;;;;;;;1773992;27;20216;-65
2023/10/29 00:04:08;;;;;;;0.00;0.00;;;;;;;;;;1773909;27;20236;-64
2023/10/29 00:05:00;;;;;;;0.00;0.00;;;;;;;;;;1773766;27;20203;-65
2023/10/29 00:05:51;;;;;;;0.00;0.00;;;;;;;;;;1773827;27;20633;-65
2023/10/29 00:06:42;;;;;;;0.00;0.00;;;;;;;;;;1774218;27;20278;-65
2023/10/29 00:07:34;;;;;;;0.00;0.00;;;;;;;;;;1774358;27;20679;-65
2023/10/29 00:08:25;;;;;;;0.00;0.00;;;;;;;;;;1773620;27;20230;-65
2023/10/29 00:09:17;;;;;;;0.00;0.00;;;;;;;;;;1774181;27;20662;-65
2023/10/29 00:10:09;;;;;;;0.00;0.00;;;;;;;;;;1773752;27;20200;-65
2023/10/29 00:11:02;;;;;;;0.00;0.00;;;;;;;;;;1773742;27;20315;-66
2023/10/29 00:11:53;;;;;;;0.00;0.00;;;;;;;;;;1773904;27;20756;-66
2023/10/29 00:12:45;;;;;;;0.00;0.00;;;;;;;;;;1773728;27;20283;-66
2023/10/29 00:13:36;;;;;;;0.00;0.00;;;;;;;;;;1774344;27;20776;-65
2023/10/29 00:14:27;;;;;;;0.00;0.00;;;;;;;;;;1773895;27;20199;-65
2023/10/29 00:15:19;;;;;;;0.00;0.00;;;;;;;;;;1773607;27;20212;-65
2023/10/29 00:16:11;;;;;;;0.00;0.00;;;;;;;;;;1773991;27;20294;-64
2023/10/29 00:17:03;;;;;;;0.00;0.00;;;;;;;;;;1773649;27;20290;-66
2023/10/29 00:17:54;;;;;;;0.00;0.00;;;;;;;;;;1773806;27;20307;-66
2023/10/29 00:18:45;;;;;;;0.00;0.00;;;;;;;;;;1773706;27;20486;-65
2023/10/29 00:19:37;;;;;;;0.00;0.00;;;;;;;;;;1773938;27;20323;-66
2023/10/29 00:20:28;;;;;;;0.00;0.00;;;;;;;;;;1773620;27;20243;-65
2023/10/29 00:21:20;;;;;;;0.00;0.00;;;;;;;;;;1774050;27;20214;-65
2023/10/29 00:22:12;;;;;;;0.00;0.00;;;;;;;;;;1771049;27;20424;-65
2023/10/29 00:23:03;;;;;;;0.00;0.00;;;;;;;;;;1767967;27;20601;-66
2023/10/29 00:23:55;;;;;;;0.00;0.00;;;;;;;;;;1772962;27;20223;-65
2023/10/29 00:24:46;;;;;;;0.00;0.00;;;;;;;;;;1773512;27;20684;-65
2023/10/29 00:25:37;;;;;;;0.00;0.00;;;;;;;;;;1774443;27;20286;-65
2023/10/29 00:26:30;;;;;;;0.00;0.00;;;;;;;;;;1773386;27;20675;-65
2023/10/29 00:27:21;;;;;;;0.00;0.00;;;;;;;;;;1773720;27;20276;-65
2023/10/29 00:28:13;;;;;;;0.00;0.00;;;;;;;;;;1772779;27;20237;-65
2023/10/29 00:29:04;;;;;;;0.00;0.00;;;;;;;;;;1773843;27;20841;-65
2023/10/29 00:29:55;;;;;;;0.00;0.00;;;;;;;;;;1773837;27;20299;-65
2023/10/29 00:30:47;;;;;;;0.00;0.00;;;;;;;;;;1773838;27;20306;-65
2023/10/29 00:31:38;;;;;;;0.00;0.00;;;;;;;;;;1774235;27;20290;-65
2023/10/29 00:32:29;;;;;;;0.00;0.00;;;;;;;;;;1773342;27;20669;-65
2023/10/29 00:33:21;;;;;;;0.00;0.00;;;;;;;;;;1773339;27;20200;-65
2023/10/29 00:34:12;;;;;;;0.00;0.00;;;;;;;;;;1773816;27;20790;-66
2023/10/29 00:35:03;;;;;;;0.00;0.00;;;;;;;;;;1773372;27;20199;-65
2023/10/29 00:35:56;;;;;;;0.00;0.00;;;;;;;;;;1773834;27;20191;-65
2023/10/29 00:36:47;;;;;;;0.00;0.00;;;;;;;;;;1773700;27;20322;-65
2023/10/29 00:37:38;;;;;;;0.00;0.00;;;;;;;;;;1774123;27;20196;-65
2023/10/29 00:38:30;;;;;;;0.00;0.00;;;;;;;;;;1772667;27;20248;-65
2023/10/29 00:39:21;;;;;;;0.00;0.00;;;;;;;;;;1773781;27;20250;-65
2023/10/29 00:40:12;;;;;;;0.00;0.00;;;;;;;;;;1773724;27;20204;-66
2023/10/29 00:41:04;;;;;;;0.00;0.00;;;;;;;;;;1773954;27;20219;-65
2023/10/29 00:41:57;;;;;;;0.00;0.00;;;;;;;;;;1771761;27;20202;-65
2023/10/29 00:42:48;;;;;;;0.00;0.00;;;;;;;;;;1774007;27;20676;-65
2023/10/29 00:43:43;;;;;;;0.00;0.00;;;;;;;;;;1773693;27;20249;-65
2023/10/29 00:44:34;;;;;;;0.00;0.00;;;;;;;;;;1773869;27;20208;-65
2023/10/29 00:45:25;;;;;;;0.00;0.00;;;;;;;;;;1773444;27;20326;-66
2023/10/29 00:46:17;;;;;;;0.00;0.00;;;;;;;;;;1773647;27;20203;-65
2023/10/29 00:47:08;;;;;;;0.00;0.00;;;;;;;;;;1773781;27;20234;-65
2023/10/29 00:48:01;;;;;;;0.03;0.03;;;;;;;;;;1773453;27;20200;-65
2023/10/29 00:48:52;;;;;;;0.00;0.00;;;;;;;;;;1773520;27;20227;-65
2023/10/29 00:49:43;;;;;;;0.00;0.00;;;;;;;;;;1772814;27;20588;-66
2023/10/29 00:50:35;;;;;;;0.00;0.00;;;;;;;;;;1773366;27;20214;-66
2023/10/29 00:51:27;;;;;;;0.00;0.00;;;;;;;;;;1773679;27;20294;-65
2023/10/29 00:52:18;;;;;;;0.00;0.00;;;;;;;;;;1769712;27;20234;-65
2023/10/29 00:53:10;;;;;;;0.00;0.00;;;;;;;;;;1767258;27;20970;-65
2023/10/29 00:54:01;;;;;;;0.00;0.00;;;;;;;;;;1773699;27;20238;-65
2023/10/29 00:54:53;;;;;;;0.00;0.00;;;;;;;;;;1773334;27;20195;-66
2023/10/29 00:55:44;;;;;;;0.00;0.00;;;;;;;;;;1774115;27;20298;-65
2023/10/29 00:56:36;;;;;;;0.00;0.00;;;;;;;;;;1773104;27;20245;-66
2023/10/29 00:57:28;;;;;;;0.00;0.00;;;;;;;;;;1773676;27;20294;-65
2023/10/29 00:58:20;;;;;;;0.00;0.00;;;;;;;;;;1773398;27;20652;-65
2023/10/29 00:59:12;;;;;;;0.00;0.00;;;;;;;;;;1773748;27;20199;-65
2023/10/29 01:00:06;;;;;;;0.00;0.00;;;;;;;;;;1773357;27;20688;-66
2023/10/29 01:00:57;;;;;;;0.00;0.00;;;;;;;;;;1773776;27;20227;-65
2023/10/29 01:01:49;;;;;;;0.00;0.00;;;;;;;;;;1773632;27;20558;-66
2023/10/29 01:02:40;;;;;;;0.00;0.00;;;;;;;;;;1773873;27;20683;-66
2023/10/29 01:03:31;;;;;;;0.00;0.00;;;;;;;;;;1773624;27;20200;-65
2023/10/29 01:04:23;;;;;;;0.00;0.00;;;;;;;;;;1773468;27;20689;-65
2023/10/29 01:05:14;;;;;;;0.00;0.00;;;;;;;;;;1773191;27;20239;-66
2023/10/29 01:06:06;;;;;;;0.00;0.00;;;;;;;;;;1773598;27;20568;-65
2023/10/29 01:06:58;;;;;;;0.00;0.00;;;;;;;;;;1773215;27;20343;-65
2023/10/29 01:07:49;;;;;;;0.00;0.00;;;;;;;;;;1773835;27;20227;-66
2023/10/29 01:08:41;;;;;;;0.00;0.00;;;;;;;;;;1773491;27;20650;-65
2023/10/29 01:09:33;;;;;;;0.00;0.00;;;;;;;;;;1773884;27;20199;-65
2023/10/29 01:10:24;;;;;;;0.00;0.00;;;;;;;;;;1773255;27;20294;-66
2023/10/29 01:11:16;;;;;;;0.00;0.00;;;;;;;;;;1773417;27;20223;-65
2023/10/29 01:12:14;;;;;;;0.00;0.00;;;;;;;;;;1773493;27;20235;-65
2023/10/29 01:13:07;;;;;;;0.00;0.00;;;;;;;;;;1773328;27;20214;-66
2023/10/29 01:13:58;;;;;;;0.00;0.00;;;;;;;;;;1770238;27;20353;-65
2023/10/29 01:14:50;;;;;;;0.00;0.00;;;;;;;;;;1773256;27;20264;-66
2023/10/29 01:15:42;;;;;;;0.00;0.00;;;;;;;;;;1774087;27;20199;-66
2023/10/29 01:16:33;;;;;;;0.00;0.00;;;;;;;;;;1773174;27;20236;-66
2023/10/29 01:17:25;;;;;;;0.00;0.00;;;;;;;;;;1773303;27;20294;-65
2023/10/29 01:18:16;;;;;;;0.00;0.00;;;;;;;;;;1773313;27;20289;-66
2023/10/29 01:19:08;;;;;;;0.00;0.00;;;;;;;;;;1773328;27;20220;-66
2023/10/29 01:19:59;;;;;;;0.00;0.00;;;;;;;;;;1772002;27;20287;-66
2023/10/29 01:20:51;;;;;;;0.00;0.00;;;;;;;;;;1773303;27;20661;-66
2023/10/29 01:21:42;;;;;;;0.00;0.00;;;;;;;;;;1773860;27;20287;-65
2023/10/29 01:22:33;;;;;;;0.00;0.00;;;;;;;;;;1767700;27;20269;-65
2023/10/29 01:23:25;;;;;;;0.00;0.00;;;;;;;;;;1769858;27;20343;-66
2023/10/29 01:24:16;;;;;;;0.00;0.00;;;;;;;;;;1763059;27;20245;-66
2023/10/29 01:25:09;;;;;;;0.00;0.00;;;;;;;;;;1761153;27;20718;-65
2023/10/29 01:26:01;;;;;;;0.00;0.00;;;;;;;;;;1764344;27;20302;-65
2023/10/29 01:26:53;;;;;;;0.00;0.00;;;;;;;;;;1764159;27;20283;-66
2023/10/29 01:27:45;;;;;;;0.00;0.00;;;;;;;;;;1767638;27;20200;-65
2023/10/29 01:28:38;;;;;;;0.00;0.00;;;;;;;;;;1765793;27;20331;-63
2023/10/29 01:29:29;;;;;;;0.00;0.00;;;;;;;;;;1759418;27;20744;-65
2023/10/29 01:30:21;;;;;;;0.00;0.00;;;;;;;;;;1762218;27;20205;-65
2023/10/29 01:31:12;;;;;;;0.00;0.00;;;;;;;;;;1763303;27;20315;-65
2023/10/29 01:32:04;;;;;;;0.00;0.00;;;;;;;;;;1766071;27;20196;-65
2023/10/29 01:32:56;;;;;;;0.00;0.00;;;;;;;;;;1766483;27;20200;-66
2023/10/29 01:33:47;;;;;;;0.00;0.00;;;;;;;;;;1766423;27;20232;-65
2023/10/29 01:34:38;;;;;;;0.00;0.00;;;;;;;;;;1760315;27;20208;-65
2023/10/29 01:35:30;;;;;;;0.00;0.00;;;;;;;;;;1765193;27;20301;-65
2023/10/29 01:36:21;;;;;;;0.00;0.00;;;;;;;;;;1765995;27;20247;-65
2023/10/29 01:37:13;;;;;;;0.00;0.00;;;;;;;;;;1766369;27;20330;-65
2023/10/29 01:38:04;;;;;;;0.00;0.00;;;;;;;;;;1765981;27;20295;-65
2023/10/29 01:38:55;;;;;;;0.00;0.00;;;;;;;;;;1766407;27;20200;-65
2023/10/29 01:39:47;;;;;;;0.00;0.00;;;;;;;;;;1766560;27;20193;-65
2023/10/29 01:40:38;;;;;;;0.00;0.00;;;;;;;;;;1763187;27;20291;-65
2023/10/29 01:41:29;;;;;;;0.00;0.00;;;;;;;;;;1764051;27;20668;-65
2023/10/29 01:42:21;;;;;;;0.00;0.00;;;;;;;;;;1764743;27;20626;-65
2023/10/29 01:43:12;;;;;;;0.00;0.00;;;;;;;;;;1765856;27;20331;-65
2023/10/29 01:44:06;;;;;;;0.00;0.00;;;;;;;;;;1764581;27;20657;-65
2023/10/29 01:44:57;;;;;;;0.00;0.00;;;;;;;;;;1761569;27;20687;-64
2023/10/29 01:45:49;;;;;;;0.00;0.00;;;;;;;;;;1764175;27;20200;-65
2023/10/29 01:46:40;;;;;;;0.00;0.00;;;;;;;;;;1763055;27;20239;-65
2023/10/29 01:47:31;;;;;;;0.00;0.00;;;;;;;;;;1766472;27;20239;-65
2023/10/29 01:48:23;;;;;;;0.00;0.00;;;;;;;;;;1765684;27;20207;-65
2023/10/29 01:49:14;;;;;;;0.00;0.00;;;;;;;;;;1763093;27;20487;-65
2023/10/29 01:50:08;;;;;;;0.00;0.00;;;;;;;;;;1760775;27;20597;-65
2023/10/29 01:51:04;;;;;;;0.00;0.00;;;;;;;;;;1764637;27;20224;-65
2023/10/29 01:51:56;;;;;;;0.00;0.00;;;;;;;;;;1764511;27;20199;-65
2023/10/29 01:52:48;;;;;;;0.00;0.00;;;;;;;;;;1765703;27;20211;-65
2023/10/29 01:53:40;;;;;;;0.00;0.00;;;;;;;;;;1765470;27;20212;-65
2023/10/29 01:54:31;;;;;;;0.00;0.00;;;;;;;;;;1766208;27;20376;-65
2023/10/29 01:55:22;;;;;;;0.00;0.00;;;;;;;;;;1763003;27;20776;-64
2023/10/29 01:56:14;;;;;;;0.00;0.00;;;;;;;;;;1762759;27;20311;-65
2023/10/29 01:57:06;;;;;;;0.00;0.00;;;;;;;;;;1766036;27;20781;-65
2023/10/29 01:57:58;;;;;;;0.00;0.00;;;;;;;;;;1766099;27;20200;-64
2023/10/29 01:58:49;;;;;;;0.00;0.00;;;;;;;;;;1766250;27;20208;-65
2023/10/29 01:59:41;;;;;;;0.00;0.00;;;;;;;;;;1760233;27;20204;-65
2023/10/29 02:00:33;;;;;;;0.00;0.00;;;;;;;;;;1763050;27;21065;-65
2023/10/29 02:01:24;;;;;;;0.00;0.00;;;;;;;;;;1763443;27;20421;-65
2023/10/29 02:02:15;;;;;;;0.00;0.00;;;;;;;;;;1766245;27;20590;-64
2023/10/29 02:03:07;;;;;;;0.00;0.00;;;;;;;;;;1767544;27;20215;-65
2023/10/29 02:03:59;;;;;;;0.00;0.00;;;;;;;;;;1767838;27;20771;-65
2023/10/29 02:04:50;;;;;;;0.00;0.00;;;;;;;;;;1761459;27;20193;-65
2023/10/29 02:05:42;;;;;;;0.00;0.00;;;;;;;;;;1763510;27;20946;-65
2023/10/29 02:06:38;;;;;;;0.00;0.00;;;;;;;;;;1763043;27;20539;-65
2023/10/29 02:07:29;;;;;;;0.00;0.00;;;;;;;;;;1764595;27;20526;-65
2023/10/29 02:08:21;;;;;;;0.00;0.00;;;;;;;;;;1766020;27;20204;-65
2023/10/29 02:09:12;;;;;;;0.00;0.00;;;;;;;;;;1763381;27;20240;-65
2023/10/29 02:10:04;;;;;;;0.00;0.00;;;;;;;;;;1761886;27;20287;-66
2023/10/29 02:10:56;;;;;;;0.00;0.00;;;;;;;;;;1764901;27;20327;-65
2023/10/29 02:11:47;;;;;;;0.00;0.00;;;;;;;;;;1766471;27;20324;-65
2023/10/29 02:12:38;;;;;;;0.00;0.00;;;;;;;;;;1759956;27;20201;-65
2023/10/29 02:13:30;;;;;;;0.00;0.00;;;;;;;;;;1765789;27;20196;-65
2023/10/29 02:14:22;;;;;;;0.00;0.00;;;;;;;;;;1762285;27;20288;-65
2023/10/29 02:15:14;;;;;;;0.00;0.00;;;;;;;;;;1761475;27;20211;-65
2023/10/29 02:16:08;;;;;;;0.00;0.00;;;;;;;;;;1761190;28;20208;-65
2023/10/29 02:17:00;;;;;;;0.03;0.03;;;;;;;;;;1764345;27;20662;-65
2023/10/29 02:17:51;;;;;;;0.00;0.00;;;;;;;;;;1764171;28;20200;-65
2023/10/29 02:18:43;;;;;;;0.00;0.00;;;;;;;;;;1771407;27;20776;-65
2023/10/29 02:19:34;;;;;;;0.00;0.00;;;;;;;;;;1764276;27;20196;-65
2023/10/29 02:20:26;;;;;;;0.00;0.00;;;;;;;;;;1765906;27;20196;-65
2023/10/29 02:21:17;;;;;;;0.00;0.00;;;;;;;;;;1765923;27;20242;-65
2023/10/29 02:22:09;;;;;;;0.00;0.00;;;;;;;;;;1764104;27;20200;-66
2023/10/29 02:23:01;;;;;;;0.00;0.00;;;;;;;;;;1762502;27;20616;-65
2023/10/29 02:23:53;;;;;;;0.00;0.00;;;;;;;;;;1769376;27;20830;-65
2023/10/29 02:24:44;;;;;;;0.00;0.00;;;;;;;;;;1766339;27;20204;-65
2023/10/29 02:25:36;;;;;;;0.00;0.00;;;;;;;;;;1763430;27;20575;-65
2023/10/29 02:26:27;;;;;;;0.00;0.00;;;;;;;;;;1763172;27;20594;-65
2023/10/29 02:27:18;;;;;;;0.00;0.00;;;;;;;;;;1763063;27;20662;-65
2023/10/29 02:28:10;;;;;;;0.00;0.00;;;;;;;;;;1764514;27;20204;-65
2023/10/29 02:29:01;;;;;;;0.00;0.00;;;;;;;;;;1765300;27;20200;-65
2023/10/29 02:29:54;;;;;;;0.00;0.00;;;;;;;;;;1761813;27;20233;-65
2023/10/29 02:30:46;;;;;;;0.00;0.00;;;;;;;;;;1764019;27;20227;-65
2023/10/29 02:31:37;;;;;;;0.00;0.00;;;;;;;;;;1763261;27;20292;-65
2023/10/29 02:32:28;;;;;;;0.00;0.00;;;;;;;;;;1761412;27;20201;-65
2023/10/29 02:33:20;;;;;;;0.00;0.00;;;;;;;;;;1764477;27;20208;-65
2023/10/29 02:34:12;;;;;;;0.00;0.00;;;;;;;;;;1763653;27;20227;-65
2023/10/29 02:35:04;;;;;;;0.00;0.00;;;;;;;;;;1761941;27;20566;-65
2023/10/29 02:35:55;;;;;;;0.00;0.00;;;;;;;;;;1764807;27;20702;-66
2023/10/29 02:36:47;;;;;;;0.00;0.00;;;;;;;;;;1763943;27;20196;-65
2023/10/29 02:37:39;;;;;;;0.00;0.00;;;;;;;;;;1766256;27;20647;-65
2023/10/29 02:38:30;;;;;;;0.00;0.00;;;;;;;;;;1765470;27;20418;-65
2023/10/29 02:39:22;;;;;;;0.00;0.00;;;;;;;;;;1762536;27;20211;-65
2023/10/29 02:40:13;;;;;;;0.00;0.00;;;;;;;;;;1764287;27;20248;-65
2023/10/29 02:41:06;;;;;;;0.00;0.00;;;;;;;;;;1764642;28;20313;-65
2023/10/29 02:41:57;;;;;;;0.00;0.00;;;;;;;;;;1762898;27;20688;-65
2023/10/29 02:42:49;;;;;;;0.00;0.00;;;;;;;;;;1760853;28;20201;-65
2023/10/29 02:43:40;;;;;;;0.00;0.00;;;;;;;;;;1765928;27;20204;-65
2023/10/29 02:44:31;;;;;;;0.00;0.00;;;;;;;;;;1761028;28;20197;-65
2023/10/29 02:45:23;;;;;;;0.00;0.00;;;;;;;;;;1765626;27;20863;-64
2023/10/29 02:46:14;;;;;;;0.00;0.00;;;;;;;;;;1763318;27;20719;-65
2023/10/29 02:47:06;;;;;;;0.00;0.00;;;;;;;;;;1766381;27;20200;-65
2023/10/29 02:47:57;;;;;;;0.00;0.00;;;;;;;;;;1767197;27;20251;-65
2023/10/29 02:48:48;;;;;;;0.00;0.00;;;;;;;;;;1766497;27;20315;-65
2023/10/29 02:49:40;;;;;;;0.00;0.00;;;;;;;;;;1761830;27;21004;-65
2023/10/29 02:50:32;;;;;;;0.00;0.00;;;;;;;;;;1764809;27;20208;-65
2023/10/29 02:51:23;;;;;;;0.00;0.00;;;;;;;;;;1767560;27;20201;-65
2023/10/29 02:52:15;;;;;;;0.00;0.00;;;;;;;;;;1764898;27;20208;-65
2023/10/29 02:53:07;;;;;;;0.00;0.00;;;;;;;;;;1762266;27;20201;-65
2023/10/29 02:53:58;;;;;;;0.00;0.00;;;;;;;;;;1767284;27;20232;-65
2023/10/29 02:54:50;;;;;;;0.00;0.00;;;;;;;;;;1762766;27;20284;-65
2023/10/29 02:55:41;;;;;;;0.00;0.00;;;;;;;;;;1765231;27;20299;-65
2023/10/29 02:56:32;;;;;;;0.00;0.00;;;;;;;;;;1767001;27;20291;-65
2023/10/29 02:57:24;;;;;;;0.00;0.00;;;;;;;;;;1763674;27;20548;-65
2023/10/29 02:58:15;;;;;;;0.00;0.00;;;;;;;;;;1765466;27;20314;-65
2023/10/29 02:59:09;;;;;;;0.00;0.00;;;;;;;;;;1765956;27;20247;-65
2023/10/29 03:00:00;;;;;;;0.00;0.00;;;;;;;;;;1763495;27;20204;-65
2023/10/29 03:00:52;;;;;;;0.00;0.00;;;;;;;;;;1766048;27;20224;-65
2023/10/29 03:01:43;;;;;;;0.00;0.00;;;;;;;;;;1765171;27;20571;-65
2023/10/29 03:02:35;;;;;;;0.00;0.00;;;;;;;;;;1762428;27;20255;-65
2023/10/29 03:03:26;;;;;;;0.00;0.00;;;;;;;;;;1766922;27;20689;-65
2023/10/29 03:04:17;;;;;;;0.00;0.00;;;;;;;;;;1764950;27;20240;-65
2023/10/29 03:05:11;;;;;;;0.00;0.00;;;;;;;;;;1763638;27;20576;-65
2023/10/29 03:06:04;;;;;;;0.00;0.00;;;;;;;;;;1766716;27;20265;-65
2023/10/29 03:06:56;;;;;;;0.00;0.00;;;;;;;;;;1766748;27;20196;-65
2023/10/29 03:07:47;;;;;;;0.00;0.00;;;;;;;;;;1761903;27;20251;-65
2023/10/29 03:08:39;;;;;;;0.00;0.00;;;;;;;;;;1767494;27;20239;-65
2023/10/29 03:09:31;;;;;;;0.00;0.00;;;;;;;;;;1760762;28;20622;-65
2023/10/29 03:10:22;;;;;;;0.00;0.00;;;;;;;;;;1765270;27;20300;-65
2023/10/29 03:11:15;;;;;;;0.00;0.00;;;;;;;;;;1767371;27;20226;-65
2023/10/29 03:12:06;;;;;;;0.00;0.00;;;;;;;;;;1766622;27;20257;-66
2023/10/29 03:12:58;;;;;;;0.00;0.00;;;;;;;;;;1763600;27;20890;-65
2023/10/29 03:13:49;;;;;;;0.00;0.00;;;;;;;;;;1767037;27;20236;-65
2023/10/29 03:14:41;;;;;;;0.00;0.00;;;;;;;;;;1762724;27;20647;-66
2023/10/29 03:15:32;;;;;;;0.00;0.00;;;;;;;;;;1765355;27;20304;-65
2023/10/29 03:16:23;;;;;;;0.00;0.00;;;;;;;;;;1767646;27;20557;-65
2023/10/29 03:17:15;;;;;;;0.00;0.00;;;;;;;;;;1767667;27;20210;-65
2023/10/29 03:18:06;;;;;;;0.00;0.00;;;;;;;;;;1767316;27;20199;-65
2023/10/29 03:18:57;;;;;;;0.00;0.00;;;;;;;;;;1764589;27;20204;-65
2023/10/29 03:19:49;;;;;;;0.00;0.00;;;;;;;;;;1761197;27;20197;-65
2023/10/29 03:20:40;;;;;;;0.00;0.00;;;;;;;;;;1765585;27;20239;-66
2023/10/29 03:21:31;;;;;;;0.00;0.00;;;;;;;;;;1765697;27;20651;-66
2023/10/29 03:22:23;;;;;;;0.00;0.00;;;;;;;;;;1764288;27;20201;-65
2023/10/29 03:23:15;;;;;;;0.00;0.00;;;;;;;;;;1765404;27;20295;-66
2023/10/29 03:24:08;;;;;;;0.00;0.00;;;;;;;;;;1773564;27;20636;-67
2023/10/29 03:24:59;;;;;;;0.00;0.00;;;;;;;;;;1774645;27;20224;-66
2023/10/29 03:25:51;;;;;;;0.00;0.00;;;;;;;;;;1774892;27;20198;-65
2023/10/29 03:26:43;;;;;;;0.00;0.00;;;;;;;;;;1774513;27;20210;-66
2023/10/29 03:27:34;;;;;;;0.00;0.00;;;;;;;;;;1774795;27;20206;-66
2023/10/29 03:28:25;;;;;;;0.00;0.00;;;;;;;;;;1772324;27;20735;-66
2023/10/29 03:29:17;;;;;;;0.00;0.00;;;;;;;;;;1774743;27;20206;-66
2023/10/29 03:30:09;;;;;;;0.00;0.00;;;;;;;;;;1774396;27;20689;-65
2023/10/29 03:31:00;;;;;;;0.00;0.00;;;;;;;;;;1774709;27;20640;-66
2023/10/29 03:31:52;;;;;;;0.10;0.10;;;;;;;;;;1774937;27;20363;-65
2023/10/29 03:32:44;;;;;;;0.00;0.00;;;;;;;;;;1774415;27;20617;-66
2023/10/29 03:33:35;;;;;;;0.00;0.00;;;;;;;;;;1774440;27;20584;-65
2023/10/29 03:34:27;;;;;;;0.00;0.00;;;;;;;;;;1774505;27;20234;-65
2023/10/29 03:35:18;;;;;;;0.00;0.00;;;;;;;;;;1774142;27;20762;-66
2023/10/29 03:36:09;;;;;;;0.00;0.00;;;;;;;;;;1774572;27;20694;-65
2023/10/29 03:37:01;;;;;;;0.00;0.00;;;;;;;;;;1774144;27;20203;-65
2023/10/29 03:37:52;;;;;;;0.00;0.00;;;;;;;;;;1775068;27;20223;-65
2023/10/29 03:38:43;;;;;;;0.00;0.00;;;;;;;;;;1774097;27;20203;-65
2023/10/29 03:39:36;;;;;;;0.00;0.00;;;;;;;;;;1774545;27;20200;-65
2023/10/29 03:40:28;;;;;;;0.00;0.00;;;;;;;;;;1774300;27;20713;-65
2023/10/29 03:41:20;;;;;;;0.00;0.00;;;;;;;;;;1774398;27;20318;-65
2023/10/29 03:42:12;;;;;;;0.00;0.00;;;;;;;;;;1772551;27;20239;-63
2023/10/29 03:43:03;;;;;;;0.00;0.00;;;;;;;;;;1774294;27;20926;-65
2023/10/29 03:43:54;;;;;;;0.00;0.00;;;;;;;;;;1774729;27;20214;-64
2023/10/29 03:44:46;;;;;;;0.00;0.00;;;;;;;;;;1774158;27;20260;-64
2023/10/29 03:45:37;;;;;;;0.00;0.00;;;;;;;;;;1774413;27;20204;-64
2023/10/29 03:46:29;;;;;;;0.00;0.00;;;;;;;;;;1772296;27;20567;-64
2023/10/29 03:47:20;;;;;;;0.00;0.00;;;;;;;;;;1771984;27;20237;-65
2023/10/29 03:48:14;;;;;;;0.00;0.00;;;;;;;;;;1774029;27;20199;-64
2023/10/29 03:49:06;;;;;;;0.00;0.00;;;;;;;;;;1774016;27;20327;-65
2023/10/29 03:49:57;;;;;;;0.00;0.00;;;;;;;;;;1774033;27;20234;-65
2023/10/29 03:50:49;;;;;;;0.00;0.00;;;;;;;;;;1774057;27;20227;-65
2023/10/29 03:51:43;;;;;;;0.00;0.00;;;;;;;;;;1774074;27;20246;-65
2023/10/29 03:52:34;;;;;;;0.00;0.00;;;;;;;;;;1763619;27;20193;-64
2023/10/29 03:53:26;;;;;;;0.00;0.00;;;;;;;;;;1769135;27;20678;-65
2023/10/29 03:54:17;;;;;;;0.00;0.00;;;;;;;;;;1774235;27;20231;-64
2023/10/29 03:55:09;;;;;;;0.00;0.00;;;;;;;;;;1773830;27;20626;-65
2023/10/29 03:56:02;;;;;;;0.00;0.00;;;;;;;;;;1774308;27;20204;-65
2023/10/29 03:56:53;;;;;;;0.00;0.00;;;;;;;;;;1774348;27;20257;-65
2023/10/29 03:57:44;;;;;;;0.00;0.00;;;;;;;;;;1773948;27;20582;-65
2023/10/29 03:58:36;;;;;;;0.00;0.00;;;;;;;;;;1773195;27;20202;-65
2023/10/29 03:59:27;;;;;;;0.00;0.00;;;;;;;;;;1773744;27;20203;-64
2023/10/29 04:00:18;;;;;;;0.00;0.00;;;;;;;;;;1773880;27;20269;-64
2023/10/29 04:01:13;;;;;;;0.00;0.00;;;;;;;;;;1774020;27;20685;-65
2023/10/29 04:02:04;;;;;;;0.00;0.00;;;;;;;;;;1774109;27;20640;-65
2023/10/29 04:02:56;;;;;;;0.00;0.00;;;;;;;;;;1774512;27;20199;-65
2023/10/29 04:03:48;;;;;;;0.00;0.00;;;;;;;;;;1773844;27;20207;-65
2023/10/29 04:04:39;;;;;;;0.00;0.00;;;;;;;;;;1774234;27;20214;-65
2023/10/29 04:05:30;;;;;;;0.00;0.00;;;;;;;;;;1773988;27;20204;-65
2023/10/29 04:06:22;;;;;;;0.00;0.00;;;;;;;;;;1774056;27;21068;-65
2023/10/29 04:07:13;;;;;;;0.00;0.00;;;;;;;;;;1774190;27;20540;-65
2023/10/29 04:08:05;;;;;;;0.00;0.00;;;;;;;;;;1773689;27;20192;-65
2023/10/29 04:08:56;;;;;;;0.00;0.00;;;;;;;;;;1770778;27;20287;-65
2023/10/29 04:09:47;;;;;;;0.00;0.00;;;;;;;;;;1773750;27;20199;-65
2023/10/29 04:10:41;;;;;;;0.00;0.00;;;;;;;;;;1774054;27;20202;-65
2023/10/29 04:11:32;;;;;;;0.00;0.00;;;;;;;;;;1770934;27;20295;-65
2023/10/29 04:12:26;;;;;;;0.00;0.00;;;;;;;;;;1773938;27;20295;-64
2023/10/29 04:13:18;;;;;;;0.00;0.00;;;;;;;;;;1774114;27;20289;-65
2023/10/29 04:14:09;;;;;;;0.00;0.00;;;;;;;;;;1773904;27;20322;-65
2023/10/29 04:15:00;;;;;;;0.00;0.00;;;;;;;;;;1774310;27;20290;-65
2023/10/29 04:15:52;;;;;;;0.00;0.00;;;;;;;;;;1773749;27;20214;-64
2023/10/29 04:16:43;;;;;;;0.00;0.00;;;;;;;;;;1773911;27;20771;-65
2023/10/29 04:17:34;;;;;;;0.00;0.00;;;;;;;;;;1773977;27;20192;-64
2023/10/29 04:18:31;;;;;;;0.00;0.00;;;;;;;;;;1773818;27;20495;-65
2023/10/29 04:19:22;;;;;;;0.00;0.00;;;;;;;;;;1774114;27;20487;-66
2023/10/29 04:20:13;;;;;;;0.00;0.00;;;;;;;;;;1773384;27;20268;-65
2023/10/29 04:21:06;;;;;;;0.00;0.00;;;;;;;;;;1774059;27;20219;-66
2023/10/29 04:21:57;;;;;;;0.00;0.00;;;;;;;;;;1773238;27;20200;-66
2023/10/29 04:22:49;;;;;;;0.00;0.00;;;;;;;;;;1761839;27;20205;-65
2023/10/29 04:23:40;;;;;;;0.00;0.00;;;;;;;;;;1773166;27;20231;-65
2023/10/29 04:24:31;;;;;;;0.00;0.00;;;;;;;;;;1774146;27;20707;-65
2023/10/29 04:25:23;;;;;;;0.00;0.00;;;;;;;;;;1773719;27;20240;-65
2023/10/29 04:26:15;;;;;;;0.00;0.00;;;;;;;;;;1773628;27;20316;-65
2023/10/29 04:27:07;;;;;;;0.00;0.00;;;;;;;;;;1773944;27;20246;-65
2023/10/29 04:27:58;;;;;;;0.00;0.00;;;;;;;;;;1772025;27;20230;-66
2023/10/29 04:28:50;;;;;;;0.00;0.00;;;;;;;;;;1773887;27;20729;-65
2023/10/29 04:29:42;;;;;;;0.00;0.00;;;;;;;;;;1773875;27;20231;-65
2023/10/29 04:30:33;;;;;;;0.00;0.00;;;;;;;;;;1773689;27;20223;-65
2023/10/29 04:31:25;;;;;;;0.00;0.00;;;;;;;;;;1773972;27;20681;-65
2023/10/29 04:32:16;;;;;;;0.00;0.00;;;;;;;;;;1773945;27;20294;-65
2023/10/29 04:33:07;;;;;;;0.00;0.00;;;;;;;;;;1773514;27;20200;-66
2023/10/29 04:33:59;;;;;;;0.00;0.00;;;;;;;;;;1774221;27;20192;-65
2023/10/29 04:34:51;;;;;;;0.00;0.00;;;;;;;;;;1773531;27;20306;-65
2023/10/29 04:35:42;;;;;;;0.00;0.00;;;;;;;;;;1773950;27;20195;-64
2023/10/29 04:36:34;;;;;;;0.00;0.00;;;;;;;;;;1773561;27;20210;-65
2023/10/29 04:37:25;;;;;;;0.00;0.00;;;;;;;;;;1773868;27;20298;-65
2023/10/29 04:38:16;;;;;;;0.00;0.00;;;;;;;;;;1773568;27;20711;-65
2023/10/29 04:39:08;;;;;;;0.00;0.00;;;;;;;;;;1773615;27;20203;-65
2023/10/29 04:39:59;;;;;;;0.00;0.00;;;;;;;;;;1774124;27;20212;-66
2023/10/29 04:40:51;;;;;;;0.00;0.00;;;;;;;;;;1773696;27;20753;-66
2023/10/29 04:41:45;;;;;;;0.00;0.00;;;;;;;;;;1773541;27;20276;-65
2023/10/29 04:42:36;;;;;;;0.00;0.00;;;;;;;;;;1773892;27;20277;-65
2023/10/29 04:43:28;;;;;;;0.00;0.00;;;;;;;;;;1773447;27;20242;-65
2023/10/29 04:44:20;;;;;;;0.00;0.00;;;;;;;;;;1773899;27;20242;-65
2023/10/29 04:45:11;;;;;;;0.00;0.00;;;;;;;;;;1773283;27;20207;-65
2023/10/29 04:46:03;;;;;;;0.00;0.00;;;;;;;;;;1774235;27;20282;-65
2023/10/29 04:46:55;;;;;;;0.00;0.00;;;;;;;;;;1773523;27;20253;-65
2023/10/29 04:47:46;;;;;;;0.00;0.00;;;;;;;;;;1773772;27;20699;-65
2023/10/29 04:48:39;;;;;;;0.00;0.00;;;;;;;;;;1773602;27;20500;-65
2023/10/29 04:49:30;;;;;;;0.00;0.00;;;;;;;;;;1772789;27;20606;-65
2023/10/29 04:50:22;;;;;;;0.00;0.00;;;;;;;;;;1772067;27;20636;-65
2023/10/29 04:51:13;;;;;;;0.00;0.00;;;;;;;;;;1773669;27;20384;-65
2023/10/29 04:52:04;;;;;;;0.00;0.00;;;;;;;;;;1771846;27;20215;-65
2023/10/29 04:52:56;;;;;;;0.00;0.00;;;;;;;;;;1760895;27;20201;-65
2023/10/29 04:53:48;;;;;;;0.00;0.00;;;;;;;;;;1773390;27;20247;-65
2023/10/29 04:54:39;;;;;;;0.00;0.00;;;;;;;;;;1773668;27;20703;-65
2023/10/29 04:55:31;;;;;;;0.00;0.00;;;;;;;;;;1772595;27;20211;-65
2023/10/29 04:56:22;;;;;;;0.00;0.00;;;;;;;;;;1773552;27;20211;-65
2023/10/29 04:57:14;;;;;;;0.00;0.00;;;;;;;;;;1773691;27;20322;-65
2023/10/29 04:58:06;;;;;;;0.00;0.00;;;;;;;;;;1773739;27;20584;-65
2023/10/29 04:58:57;;;;;;;0.00;0.00;;;;;;;;;;1774258;27;20234;-65
2023/10/29 04:59:48;;;;;;;0.00;0.00;;;;;;;;;;1773422;27;20313;-65
2023/10/29 05:00:41;;;;;;;0.00;0.00;;;;;;;;;;1773681;27;20200;-65
2023/10/29 05:01:32;;;;;;;0.00;0.00;;;;;;;;;;1773481;27;20298;-65
2023/10/29 05:02:24;;;;;;;0.00;0.00;;;;;;;;;;1773502;27;20297;-65
2023/10/29 05:03:15;;;;;;;0.00;0.00;;;;;;;;;;1773551;27;20242;-65
2023/10/29 05:04:07;;;;;;;0.00;0.00;;;;;;;;;;1773992;27;20623;-65
2023/10/29 05:04:58;;;;;;;0.00;0.00;;;;;;;;;;1773761;27;22062;-65
2023/10/29 05:05:49;;;;;;;0.00;0.00;;;;;;;;;;1773469;27;20290;-65
2023/10/29 05:06:41;;;;;;;0.00;0.00;;;;;;;;;;1773522;27;20541;-65
2023/10/29 05:07:32;;;;;;;0.00;0.00;;;;;;;;;;1773924;27;20701;-65
2023/10/29 05:08:24;;;;;;;0.00;0.00;;;;;;;;;;1773328;27;20215;-65
2023/10/29 05:09:15;;;;;;;0.00;0.00;;;;;;;;;;1773847;27;20779;-63
2023/10/29 05:10:08;;;;;;;0.00;0.00;;;;;;;;;;1773437;27;20200;-65